Terminal Aerodrome Forecast
Issued by NWS

Home | Current Version | Previous Version | Text Only | Print | Product List | Glossary On
Versions: 1 2 3 4 5 6 7 8 9 10 11 12
000
FTUS44 KLZK 291100
TAFPBF
TAF
KPBF 291140Z 2912/3012 22010G18KT P6SM BKN250 WS020/26040KT
     FM291500 26010G20KT P6SM BKN250
     FM291800 34011G21KT P6SM SCT040
     FM292200 36009KT P6SM BKN040
     FM300300 01003KT P6SM SCT250=

USA.gov is the U.S. government's official web portal to all federal, state and local government web resources and services.